Relevés horaires Beauvechain (Belgique)


Relevés horaires à Beauvechain - Jeudi 23 Nov. 2017
Heure UTC1 Température [°C] Vent [km/h] Hum. [%] Pres.4 [hPa] Visi. [Km] Nébu. [octa] Préc.5 [mm] Cond.
2m. Res. Ros. Dir.2 Vit. Moy. Raf.3
23:00 9.8 8.9 7.3 S 7.4 -- 11.1 84 1009.3(-0.4/3h) 20 -- -- --
22:00 10.0 9.1 7.3 SSO 7.4 -- 11.1 83 1009.8(0.6/3h) 20 -- -- --
21:00 9.9 9 6.5 SSO 7.4 -- 13.0 79 1010.2(1.3/3h) 20 -- -- --
20:00 9.7 8.8 6.5 SSO 7.4 -- 13.0 80 1009.7(1.5/3h) 20 -- -- --
19:00 9.3 8.3 6.2 SSO 7.4 -- 11.1 81 1009.3(2.0/3h) 20 -- -- --
18:00 9.8 9.4 6.4 SO 5.6 -- 29.6 79 1008.8(2.6/3h) 20 -- 0.2/12h
NA
17:00 10.3 9.5 7.2 OSO 7.4 -- 13.0 81 1008.2(3.3/3h) 20 -- -- --
16:00 10.8 10.5 8.7 SO 5.6 -- 14.8 87 1007.2(3.6/3h) 15 5/8 -- Etat du ciel inchangé
15:00 11.0 9.7 9.3 OSO 11.1 -- 29.6 89 1006.1(3.2/3h) 15 7/8 -- Il y a eu une averse de pluie à la station au cours de l'heure précédente, mais il n'y en a pas au moment de l'observation
14:00 12.9 11.5 10.1 SO 14.8 -- 27.8 83 1004.6(2.1/3h) 4.5 7/8 -- Il y a eu une averse de pluie à la station au cours de l'heure précédente, mais il n'y en a pas au moment de l'observation
13:00 12.8 11.2 10.4 SSO 16.7 -- 29.6 85 1003.3(1.6/3h) 20 7/8 -- --
13:00 12.8 11.2 10.4 SSO 16.7 -- 29.6 85 1003.3(1.6/3h) 20 7/8 -- --
12:00 14.5 13.2 8.8 SSO 18.5 -- 35.2 69 1002.7(2.3/3h) 20 7/8 -- --
12:00 14.5 13.2 8.8 SSO 18.5 -- 35.2 69 1002.7(2.3/3h) 20 7/8 -- --
11:00 13.4 11.9 8.3 SSO 16.7 -- 31.5 71 1002.3(3.0/3h) 20 7/8 -- --
10:00 13.2 11.5 7.3 SSO 18.5 -- 33.3 67 1001.7(3.3/3h) 20 7/8 -- --
09:00 13.3 11.5 6.5 SSO 20.4 -- 35.2 63 1000.2(2.0/3h) 20 7/8 -- --
09:00 13.3 11.5 6.5 SSO 20.4 -- 35.2 63 1000.2(2.0/3h) 20 7/8 -- --
08:00 12.7 10.6 6.0 SSO 22.2 -- 31.5 64 999.3(0.7/3h) 20 6/8 -- --
08:00 12.7 10.6 6.0 SSO 22.2 -- 31.5 64 999.3(0.7/3h) 20 6/8 -- --
07:00 12.9 11 4.7 S 20.4 -- 35.2 57 998.3(-0.6/3h) 20 5/8 -- --
06:00 12.3 10.4 4.3 S 18.5 -- 33.3 58 998.3(-1.2/3h) 20 5/8 -- --
06:00 12.3 10.4 4.3 S 18.5 -- 33.3 58 998.3(-1.2/3h) 20 5/8 -- --
05:00 12.6 10.8 3.8 S 18.5 -- 27.8 55 998.5(-1.4/3h) 20 7/8 -- --

1 Coordinated Universal Time. Actuellement il est 01:00 locale et 23:00 UTC.

2 Le vent souffle depuis la direction indiquée vers la direction oposée.

3 Les rafales max. sont disponible 40 min après l'heure du relevé.

4 Pour les stations d'altitude (plus de 600m) le géopotentiel du niveau le plus proche de la pression obligatoire est indiqué.

5 Les stations disposant d'un diffuseur peuvent indiquer "trace". Cela signifie que des précipitations ont touchés le sol mais que la quantité est inférieure à 0.1 mm.

Récapitulatif de la journée
Température [°C] Vent [km/h] Ensoleillement4 [h] Precipitations totale5 [mm] Pression [Hpa]
Min1 Max.2 Moy.3 Max. Min Max.
10.0 15.3 0 35.2 0 h 0 min 0 998.3 1010.2

1 Température minimale relevée entre 18:00 UTC la veille et 18:00 UTC le jour donné.

2 Température maximale relevée entre 06:00 UTC le jour donné et 06:00 UTC le lendemain.

3 Vent moyen de la journée basé sur les relevés horaires.

4 Ensoleillement en heures relevé entre 06:00 UTC la veille et 06:00 UTC le jour donné.

5 Précipitations totales tombées entre 06:00 UTC la jour donné et 06:00 UTC le lendemain.

Graphiques horaires